sensor_id;sensor_type;location;lat;lon;timestamp;pressure;altitude;pressure_sealevel;temperature;humidity
15529;BME280;7866;52.280;9.500;2023-08-01T00:02:35;98668.72;;;17.60;100.00
15529;BME280;7866;52.280;9.500;2023-08-01T00:07:38;98654.78;;;17.51;100.00
15529;BME280;7866;52.280;9.500;2023-08-01T00:12:40;98646.91;;;17.44;100.00
15529;BME280;7866;52.280;9.500;2023-08-01T00:17:41;98646.94;;;17.49;100.00
15529;BME280;7866;52.280;9.500;2023-08-01T00:22:44;98619.06;;;17.49;100.00
15529;BME280;7866;52.280;9.500;2023-08-01T00:27:46;98614.72;;;17.48;100.00
15529;BME280;7866;52.280;9.500;2023-08-01T00:32:48;98599.03;;;17.50;100.00
15529;BME280;7866;52.280;9.500;2023-08-01T00:37:51;98580.34;;;17.48;100.00
15529;BME280;7866;52.280;9.500;2023-08-01T00:42:52;98597.41;;;17.49;100.00
15529;BME280;7866;52.280;9.500;2023-08-01T00:47:57;98593.88;;;17.48;100.00
15529;BME280;7866;52.280;9.500;2023-08-01T00:53:00;98582.78;;;17.50;100.00
15529;BME280;7866;52.280;9.500;2023-08-01T00:58:02;98588.47;;;17.48;100.00
15529;BME280;7866;52.280;9.500;2023-08-01T01:03:04;98585.75;;;17.48;100.00
15529;BME280;7866;52.280;9.500;2023-08-01T01:08:08;98581.16;;;17.49;100.00
15529;BME280;7866;52.280;9.500;2023-08-01T01:13:10;98578.75;;;17.53;100.00
15529;BME280;7866;52.280;9.500;2023-08-01T01:18:11;98573.59;;;17.51;100.00
15529;BME280;7866;52.280;9.500;2023-08-01T01:23:14;98568.75;;;17.53;100.00
15529;BME280;7866;52.280;9.500;2023-08-01T01:28:18;98561.44;;;17.54;100.00
15529;BME280;7866;52.280;9.500;2023-08-01T01:33:20;98560.34;;;17.55;100.00
15529;BME280;7866;52.280;9.500;2023-08-01T01:38:23;98541.38;;;17.49;100.00
15529;BME280;7866;52.280;9.500;2023-08-01T01:43:25;98535.66;;;17.46;100.00
15529;BME280;7866;52.280;9.500;2023-08-01T01:48:26;98535.38;;;17.42;100.00
15529;BME280;7866;52.280;9.500;2023-08-01T01:53:29;98526.44;;;17.42;100.00
15529;BME280;7866;52.280;9.500;2023-08-01T01:58:31;98528.81;;;17.33;100.00
15529;BME280;7866;52.280;9.500;2023-08-01T02:03:34;98506.56;;;17.31;100.00
15529;BME280;7866;52.280;9.500;2023-08-01T02:08:37;98497.06;;;17.23;100.00
15529;BME280;7866;52.280;9.500;2023-08-01T02:13:39;98503.53;;;17.22;100.00
15529;BME280;7866;52.280;9.500;2023-08-01T02:18:41;98496.50;;;17.21;100.00
15529;BME280;7866;52.280;9.500;2023-08-01T02:23:43;98497.59;;;17.20;100.00
15529;BME280;7866;52.280;9.500;2023-08-01T02:28:45;98477.72;;;17.10;100.00
15529;BME280;7866;52.280;9.500;2023-08-01T02:33:47;98479.97;;;17.18;100.00
15529;BME280;7866;52.280;9.500;2023-08-01T02:38:50;98462.94;;;17.17;100.00
15529;BME280;7866;52.280;9.500;2023-08-01T02:43:52;98469.06;;;17.08;100.00
15529;BME280;7866;52.280;9.500;2023-08-01T02:48:54;98453.00;;;16.96;100.00
15529;BME280;7866;52.280;9.500;2023-08-01T02:53:57;98448.19;;;17.03;100.00
15529;BME280;7866;52.280;9.500;2023-08-01T02:58:58;98449.78;;;16.99;100.00
15529;BME280;7866;52.280;9.500;2023-08-01T03:04:00;98440.03;;;16.98;100.00
15529;BME280;7866;52.280;9.500;2023-08-01T03:09:03;98430.03;;;16.98;100.00
15529;BME280;7866;52.280;9.500;2023-08-01T03:14:08;98428.69;;;16.96;100.00
15529;BME280;7866;52.280;9.500;2023-08-01T03:19:09;98426.22;;;16.94;100.00
15529;BME280;7866;52.280;9.500;2023-08-01T03:24:12;98416.47;;;16.93;100.00
15529;BME280;7866;52.280;9.500;2023-08-01T03:29:14;98407.59;;;16.98;100.00
15529;BME280;7866;52.280;9.500;2023-08-01T03:34:16;98423.69;;;16.83;100.00
15529;BME280;7866;52.280;9.500;2023-08-01T03:39:19;98410.44;;;16.81;100.00
15529;BME280;7866;52.280;9.500;2023-08-01T03:44:20;98406.09;;;16.80;100.00
15529;BME280;7866;52.280;9.500;2023-08-01T03:49:23;98398.13;;;16.68;100.00
15529;BME280;7866;52.280;9.500;2023-08-01T03:54:26;98394.84;;;16.66;100.00
15529;BME280;7866;52.280;9.500;2023-08-01T03:59:28;98396.78;;;16.71;100.00
15529;BME280;7866;52.280;9.500;2023-08-01T04:04:29;98408.94;;;16.68;100.00
15529;BME280;7866;52.280;9.500;2023-08-01T04:09:33;98420.56;;;16.69;100.00
15529;BME280;7866;52.280;9.500;2023-08-01T04:14:34;98409.94;;;16.62;100.00
15529;BME280;7866;52.280;9.500;2023-08-01T04:19:36;98413.72;;;16.61;100.00
15529;BME280;7866;52.280;9.500;2023-08-01T04:24:39;98420.97;;;16.56;100.00
15529;BME280;7866;52.280;9.500;2023-08-01T04:29:40;98410.44;;;16.59;100.00
15529;BME280;7866;52.280;9.500;2023-08-01T04:34:42;98422.19;;;16.70;100.00
15529;BME280;7866;52.280;9.500;2023-08-01T04:39:45;98428.41;;;16.70;100.00
15529;BME280;7866;52.280;9.500;2023-08-01T04:44:46;98423.16;;;16.59;100.00
15529;BME280;7866;52.280;9.500;2023-08-01T04:49:48;98419.13;;;16.61;100.00
15529;BME280;7866;52.280;9.500;2023-08-01T04:54:51;98413.00;;;16.71;100.00
15529;BME280;7866;52.280;9.500;2023-08-01T04:59:53;98418.94;;;16.68;100.00
15529;BME280;7866;52.280;9.500;2023-08-01T05:04:54;98419.22;;;16.71;100.00
15529;BME280;7866;52.280;9.500;2023-08-01T05:09:58;98428.72;;;16.74;100.00
15529;BME280;7866;52.280;9.500;2023-08-01T05:15:00;98428.34;;;16.65;100.00
15529;BME280;7866;52.280;9.500;2023-08-01T05:20:01;98428.09;;;16.67;100.00
15529;BME280;7866;52.280;9.500;2023-08-01T05:25:06;98418.94;;;16.68;100.00
15529;BME280;7866;52.280;9.500;2023-08-01T05:30:09;98423.47;;;16.89;100.00
15529;BME280;7866;52.280;9.500;2023-08-01T05:35:11;98417.50;;;16.87;100.00
15529;BME280;7866;52.280;9.500;2023-08-01T05:40:14;98424.75;;;16.82;100.00
15529;BME280;7866;52.280;9.500;2023-08-01T05:45:16;98426.69;;;16.86;100.00
15529;BME280;7866;52.280;9.500;2023-08-01T05:50:17;98442.50;;;16.99;100.00
15529;BME280;7866;52.280;9.500;2023-08-01T05:55:20;98450.53;;;16.94;100.00
15529;BME280;7866;52.280;9.500;2023-08-01T06:00:22;98460.84;;;16.97;100.00
15529;BME280;7866;52.280;9.500;2023-08-01T06:05:24;98458.59;;;16.84;100.00
15529;BME280;7866;52.280;9.500;2023-08-01T06:10:27;98472.16;;;16.89;100.00
15529;BME280;7866;52.280;9.500;2023-08-01T06:15:28;98476.97;;;16.87;100.00
15529;BME280;7866;52.280;9.500;2023-08-01T06:20:30;98480.97;;;16.80;100.00
15529;BME280;7866;52.280;9.500;2023-08-01T06:25:33;98457.00;;;16.88;100.00
15529;BME280;7866;52.280;9.500;2023-08-01T06:30:34;98458.63;;;16.89;100.00
15529;BME280;7866;52.280;9.500;2023-08-01T06:35:36;98461.84;;;16.86;100.00
15529;BME280;7866;52.280;9.500;2023-08-01T06:40:39;98455.34;;;16.87;100.00
15529;BME280;7866;52.280;9.500;2023-08-01T06:45:41;98463.56;;;16.97;100.00
15529;BME280;7866;52.280;9.500;2023-08-01T06:50:42;98470.13;;;17.07;100.00
15529;BME280;7866;52.280;9.500;2023-08-01T06:55:45;98470.72;;;17.14;100.00
15529;BME280;7866;52.280;9.500;2023-08-01T07:00:47;98474.81;;;17.16;100.00
15529;BME280;7866;52.280;9.500;2023-08-01T07:05:48;98474.81;;;17.16;100.00
15529;BME280;7866;52.280;9.500;2023-08-01T07:10:51;98474.00;;;17.16;100.00
15529;BME280;7866;52.280;9.500;2023-08-01T07:15:53;98486.03;;;17.35;99.92
15529;BME280;7866;52.280;9.500;2023-08-01T07:21:00;98501.00;;;17.43;99.30
15529;BME280;7866;52.280;9.500;2023-08-01T07:26:04;98502.66;;;17.44;99.28
15529;BME280;7866;52.280;9.500;2023-08-01T07:31:06;98505.66;;;17.47;99.16
15529;BME280;7866;52.280;9.500;2023-08-01T07:36:08;98523.13;;;17.35;98.77
15529;BME280;7866;52.280;9.500;2023-08-01T07:41:11;98512.56;;;17.33;99.24
15529;BME280;7866;52.280;9.500;2023-08-01T07:46:12;98519.13;;;17.42;98.57
15529;BME280;7866;52.280;9.500;2023-08-01T07:51:14;98517.47;;;17.36;99.15
15529;BME280;7866;52.280;9.500;2023-08-01T07:56:17;98515.84;;;17.72;98.67
15529;BME280;7866;52.280;9.500;2023-08-01T08:01:19;98520.84;;;17.91;97.27
15529;BME280;7866;52.280;9.500;2023-08-01T08:06:20;98523.28;;;18.40;95.58
15529;BME280;7866;52.280;9.500;2023-08-01T08:11:25;98542.78;;;18.32;92.14
15529;BME280;7866;52.280;9.500;2023-08-01T08:16:26;98530.84;;;18.33;93.87
15529;BME280;7866;52.280;9.500;2023-08-01T08:21:28;98524.75;;;18.05;94.20
15529;BME280;7866;52.280;9.500;2023-08-01T08:26:31;98518.03;;;18.18;95.40
15529;BME280;7866;52.280;9.500;2023-08-01T08:31:34;98525.81;;;18.67;94.12
15529;BME280;7866;52.280;9.500;2023-08-01T08:36:36;98533.91;;;18.52;92.72
15529;BME280;7866;52.280;9.500;2023-08-01T08:41:45;98519.88;;;18.70;94.03
15529;BME280;7866;52.280;9.500;2023-08-01T08:46:49;98515.91;;;19.08;92.51
15529;BME280;7866;52.280;9.500;2023-08-01T08:51:51;98507.78;;;19.29;89.70
15529;BME280;7866;52.280;9.500;2023-08-01T08:56:54;98513.22;;;19.29;88.63
15529;BME280;7866;52.280;9.500;2023-08-01T09:01:56;98511.59;;;19.33;89.59
15529;BME280;7866;52.280;9.500;2023-08-01T09:07:01;98516.22;;;19.73;87.17
15529;BME280;7866;52.280;9.500;2023-08-01T09:12:06;98515.38;;;19.93;85.46
15529;BME280;7866;52.280;9.500;2023-08-01T09:17:09;98523.81;;;19.91;85.34
15529;BME280;7866;52.280;9.500;2023-08-01T09:22:11;98527.56;;;20.01;83.36
15529;BME280;7866;52.280;9.500;2023-08-01T09:27:14;98537.94;;;19.48;84.55
15529;BME280;7866;52.280;9.500;2023-08-01T09:32:16;98530.81;;;20.03;84.12
15529;BME280;7866;52.280;9.500;2023-08-01T09:37:19;98540.28;;;20.31;83.37
15529;BME280;7866;52.280;9.500;2023-08-01T09:42:22;98537.50;;;20.51;81.56
15529;BME280;7866;52.280;9.500;2023-08-01T09:47:23;98544.84;;;20.46;78.78
15529;BME280;7866;52.280;9.500;2023-08-01T09:52:28;98539.03;;;19.72;82.44
15529;BME280;7866;52.280;9.500;2023-08-01T09:57:31;98542.81;;;19.66;84.09
15529;BME280;7866;52.280;9.500;2023-08-01T10:02:33;98545.53;;;19.91;81.02
15529;BME280;7866;52.280;9.500;2023-08-01T10:07:38;98539.03;;;19.77;82.32
15529;BME280;7866;52.280;9.500;2023-08-01T10:12:45;98550.16;;;19.55;82.47
15529;BME280;7866;52.280;9.500;2023-08-01T10:17:48;98547.97;;;19.32;84.19
15529;BME280;7866;52.280;9.500;2023-08-01T10:22:50;98549.84;;;19.16;84.04
15529;BME280;7866;52.280;9.500;2023-08-01T10:28:01;98547.69;;;19.23;85.25
15529;BME280;7866;52.280;9.500;2023-08-01T10:33:03;98557.38;;;18.93;84.98
15529;BME280;7866;52.280;9.500;2023-08-01T10:38:06;98551.72;;;18.95;87.13
15529;BME280;7866;52.280;9.500;2023-08-01T10:43:20;98548.81;;;19.83;83.39
15529;BME280;7866;52.280;9.500;2023-08-01T10:48:22;98550.94;;;20.12;80.21
15529;BME280;7866;52.280;9.500;2023-08-01T10:53:24;98542.16;;;20.35;78.25
15529;BME280;7866;52.280;9.500;2023-08-01T10:58:28;98536.72;;;20.35;77.97
15529;BME280;7866;52.280;9.500;2023-08-01T11:03:36;98530.00;;;20.12;75.24
15529;BME280;7866;52.280;9.500;2023-08-01T11:08:39;98544.16;;;19.99;78.50
15529;BME280;7866;52.280;9.500;2023-08-01T11:13:49;98565.09;;;19.73;80.51
15529;BME280;7866;52.280;9.500;2023-08-01T11:18:52;98568.84;;;19.26;83.70
15529;BME280;7866;52.280;9.500;2023-08-01T11:23:53;98576.72;;;19.33;85.54
15529;BME280;7866;52.280;9.500;2023-08-01T11:29:01;98586.72;;;19.02;86.17
15529;BME280;7866;52.280;9.500;2023-08-01T11:34:02;98595.19;;;18.53;87.01
15529;BME280;7866;52.280;9.500;2023-08-01T11:39:04;98589.19;;;18.51;87.48
15529;BME280;7866;52.280;9.500;2023-08-01T11:44:07;98601.00;;;18.77;86.35
15529;BME280;7866;52.280;9.500;2023-08-01T11:49:14;98595.94;;;19.06;85.08
15529;BME280;7866;52.280;9.500;2023-08-01T11:54:15;98591.72;;;19.86;82.80
15529;BME280;7866;52.280;9.500;2023-08-01T11:59:19;98600.13;;;20.05;81.54
15529;BME280;7866;52.280;9.500;2023-08-01T12:04:24;98614.28;;;19.77;81.56
15529;BME280;7866;52.280;9.500;2023-08-01T12:09:26;98618.28;;;19.49;82.83
15529;BME280;7866;52.280;9.500;2023-08-01T12:14:34;98624.25;;;19.51;83.50
15529;BME280;7866;52.280;9.500;2023-08-01T12:19:40;98622.66;;;19.60;82.54
15529;BME280;7866;52.280;9.500;2023-08-01T12:24:42;98623.22;;;19.82;82.62
15529;BME280;7866;52.280;9.500;2023-08-01T12:29:45;98618.56;;;19.47;82.28
15529;BME280;7866;52.280;9.500;2023-08-01T12:34:46;98617.78;;;19.62;82.94
15529;BME280;7866;52.280;9.500;2023-08-01T12:39:48;98629.66;;;19.25;83.12
15529;BME280;7866;52.280;9.500;2023-08-01T12:44:51;98622.84;;;19.12;83.95
15529;BME280;7866;52.280;9.500;2023-08-01T12:49:53;98636.75;;;19.36;81.81
15529;BME280;7866;52.280;9.500;2023-08-01T12:54:55;98617.25;;;20.11;78.66
15529;BME280;7866;52.280;9.500;2023-08-01T12:59:57;98619.47;;;20.99;76.06
15529;BME280;7866;52.280;9.500;2023-08-01T13:04:59;98601.19;;;21.05;74.94
15529;BME280;7866;52.280;9.500;2023-08-01T13:10:01;98608.31;;;20.96;75.73
15529;BME280;7866;52.280;9.500;2023-08-01T13:15:05;98623.97;;;20.44;77.19
15529;BME280;7866;52.280;9.500;2023-08-01T13:20:08;98632.19;;;19.67;80.13
15529;BME280;7866;52.280;9.500;2023-08-01T13:25:09;98702.63;;;19.16;84.61
15529;BME280;7866;52.280;9.500;2023-08-01T13:30:13;98662.34;;;18.40;90.18
15529;BME280;7866;52.280;9.500;2023-08-01T13:35:17;98666.88;;;17.92;91.45
15529;BME280;7866;52.280;9.500;2023-08-01T13:40:19;98655.09;;;18.51;91.87
15529;BME280;7866;52.280;9.500;2023-08-01T13:45:22;98664.28;;;20.11;88.06
15529;BME280;7866;52.280;9.500;2023-08-01T13:50:25;98667.81;;;20.12;83.56
15529;BME280;7866;52.280;9.500;2023-08-01T13:55:27;98660.19;;;19.88;84.76
15529;BME280;7866;52.280;9.500;2023-08-01T14:00:30;98664.44;;;19.43;85.71
15529;BME280;7866;52.280;9.500;2023-08-01T14:05:32;98688.91;;;18.81;88.21
15529;BME280;7866;52.280;9.500;2023-08-01T14:10:34;98686.38;;;18.69;88.77
15529;BME280;7866;52.280;9.500;2023-08-01T14:15:37;98682.38;;;18.82;88.92
15529;BME280;7866;52.280;9.500;2023-08-01T14:20:38;98708.00;;;19.01;86.84
15529;BME280;7866;52.280;9.500;2023-08-01T14:25:40;98709.06;;;18.58;87.84
15529;BME280;7866;52.280;9.500;2023-08-01T14:30:43;98711.50;;;19.02;87.08
15529;BME280;7866;52.280;9.500;2023-08-01T14:35:44;98716.69;;;19.71;84.47
15529;BME280;7866;52.280;9.500;2023-08-01T14:40:46;98728.66;;;20.01;82.90
15529;BME280;7866;52.280;9.500;2023-08-01T14:45:49;98737.06;;;19.84;81.92
15529;BME280;7866;52.280;9.500;2023-08-01T14:50:50;98727.59;;;20.17;81.74
15529;BME280;7866;52.280;9.500;2023-08-01T14:55:58;98737.13;;;19.21;82.74
15529;BME280;7866;52.280;9.500;2023-08-01T15:01:01;98748.06;;;18.84;84.40
15529;BME280;7866;52.280;9.500;2023-08-01T15:06:07;98732.63;;;18.89;84.98
15529;BME280;7866;52.280;9.500;2023-08-01T15:11:08;98743.56;;;19.05;84.23
15529;BME280;7866;52.280;9.500;2023-08-01T15:16:11;98735.41;;;19.78;80.87
15529;BME280;7866;52.280;9.500;2023-08-01T15:21:13;98733.03;;;20.27;78.45
15529;BME280;7866;52.280;9.500;2023-08-01T15:26:15;98730.84;;;20.45;77.07
15529;BME280;7866;52.280;9.500;2023-08-01T15:31:18;98737.91;;;20.46;78.00
15529;BME280;7866;52.280;9.500;2023-08-01T15:36:25;98728.13;;;20.45;76.20
15529;BME280;7866;52.280;9.500;2023-08-01T15:41:27;98737.94;;;20.56;76.81
15529;BME280;7866;52.280;9.500;2023-08-01T15:46:30;98736.56;;;20.48;77.37
15529;BME280;7866;52.280;9.500;2023-08-01T15:51:32;98737.09;;;20.45;76.06
15529;BME280;7866;52.280;9.500;2023-08-01T15:56:34;98742.28;;;20.31;76.80
15529;BME280;7866;52.280;9.500;2023-08-01T16:01:37;98756.69;;;20.42;77.01
15529;BME280;7866;52.280;9.500;2023-08-01T16:06:39;98752.06;;;20.17;77.72
15529;BME280;7866;52.280;9.500;2023-08-01T16:11:40;98753.91;;;19.76;78.04
15529;BME280;7866;52.280;9.500;2023-08-01T16:16:43;98759.50;;;19.59;79.17
15529;BME280;7866;52.280;9.500;2023-08-01T16:21:45;98744.41;;;19.93;77.65
15529;BME280;7866;52.280;9.500;2023-08-01T16:26:46;98747.97;;;20.04;76.96
15529;BME280;7866;52.280;9.500;2023-08-01T16:31:49;98748.19;;;19.67;78.54
15529;BME280;7866;52.280;9.500;2023-08-01T16:36:51;98742.38;;;19.43;80.12
15529;BME280;7866;52.280;9.500;2023-08-01T16:41:52;98744.81;;;19.50;80.76
15529;BME280;7866;52.280;9.500;2023-08-01T16:46:56;98753.88;;;19.65;80.16
15529;BME280;7866;52.280;9.500;2023-08-01T16:51:57;98742.38;;;19.48;80.18
15529;BME280;7866;52.280;9.500;2023-08-01T16:56:59;98745.34;;;19.47;80.11
15529;BME280;7866;52.280;9.500;2023-08-01T17:02:02;98744.81;;;19.50;79.52
15529;BME280;7866;52.280;9.500;2023-08-01T17:07:05;98753.47;;;19.36;79.21
15529;BME280;7866;52.280;9.500;2023-08-01T17:12:07;98759.47;;;19.43;79.23
15529;BME280;7866;52.280;9.500;2023-08-01T17:17:10;98768.69;;;19.42;79.38
15529;BME280;7866;52.280;9.500;2023-08-01T17:22:12;98765.16;;;19.42;78.17
15529;BME280;7866;52.280;9.500;2023-08-01T17:27:14;98772.19;;;19.38;78.62
15529;BME280;7866;52.280;9.500;2023-08-01T17:32:17;98784.09;;;19.27;78.93
15529;BME280;7866;52.280;9.500;2023-08-01T17:37:19;98782.97;;;19.17;78.78
15529;BME280;7866;52.280;9.500;2023-08-01T17:42:20;98790.50;;;19.05;79.58
15529;BME280;7866;52.280;9.500;2023-08-01T17:47:25;98792.88;;;18.91;80.29
15529;BME280;7866;52.280;9.500;2023-08-01T17:52:27;98802.22;;;18.74;81.07
15529;BME280;7866;52.280;9.500;2023-08-01T17:57:29;98802.06;;;18.58;82.24
15529;BME280;7866;52.280;9.500;2023-08-01T18:02:32;98799.06;;;18.55;82.46
15529;BME280;7866;52.280;9.500;2023-08-01T18:07:34;98803.94;;;18.53;82.33
15529;BME280;7866;52.280;9.500;2023-08-01T18:12:35;98815.88;;;18.52;82.29
15529;BME280;7866;52.280;9.500;2023-08-01T18:17:38;98815.78;;;18.46;81.86
15529;BME280;7866;52.280;9.500;2023-08-01T18:22:40;98827.19;;;18.43;81.88
15529;BME280;7866;52.280;9.500;2023-08-01T18:27:42;98835.25;;;18.38;82.29
15529;BME280;7866;52.280;9.500;2023-08-01T18:32:44;98833.28;;;18.29;82.56
15529;BME280;7866;52.280;9.500;2023-08-01T18:37:46;98820.50;;;18.24;83.13
15529;BME280;7866;52.280;9.500;2023-08-01T18:42:48;98821.47;;;18.13;84.17
15529;BME280;7866;52.280;9.500;2023-08-01T18:47:51;98828.66;;;18.02;84.61
15529;BME280;7866;52.280;9.500;2023-08-01T18:52:53;98844.53;;;17.93;84.53
15529;BME280;7866;52.280;9.500;2023-08-01T18:57:55;98856.97;;;17.89;84.20
15529;BME280;7866;52.280;9.500;2023-08-01T19:03:00;98863.91;;;17.80;84.02
15529;BME280;7866;52.280;9.500;2023-08-01T19:08:03;98868.28;;;17.86;83.11
15529;BME280;7866;52.280;9.500;2023-08-01T19:13:05;98866.09;;;17.83;82.75
15529;BME280;7866;52.280;9.500;2023-08-01T19:18:08;98870.69;;;17.83;82.19
15529;BME280;7866;52.280;9.500;2023-08-01T19:23:10;98879.06;;;17.81;82.12
15529;BME280;7866;52.280;9.500;2023-08-01T19:28:11;98890.31;;;17.73;81.77
15529;BME280;7866;52.280;9.500;2023-08-01T19:33:15;98885.03;;;17.61;80.60
15529;BME280;7866;52.280;9.500;2023-08-01T19:38:16;98902.97;;;17.67;80.17
15529;BME280;7866;52.280;9.500;2023-08-01T19:43:18;98906.94;;;17.60;80.35
15529;BME280;7866;52.280;9.500;2023-08-01T19:48:21;98911.28;;;17.61;79.83
15529;BME280;7866;52.280;9.500;2023-08-01T19:53:23;98911.72;;;17.53;80.06
15529;BME280;7866;52.280;9.500;2023-08-01T19:58:24;98920.81;;;17.46;79.79
15529;BME280;7866;52.280;9.500;2023-08-01T20:03:28;98917.53;;;17.44;80.17
15529;BME280;7866;52.280;9.500;2023-08-01T20:08:32;98932.66;;;17.40;80.17
15529;BME280;7866;52.280;9.500;2023-08-01T20:13:34;98929.03;;;17.35;80.51
15529;BME280;7866;52.280;9.500;2023-08-01T20:18:37;98930.91;;;17.34;80.05
15529;BME280;7866;52.280;9.500;2023-08-01T20:23:39;98939.53;;;17.31;80.39
15529;BME280;7866;52.280;9.500;2023-08-01T20:28:40;98932.97;;;17.27;80.22
15529;BME280;7866;52.280;9.500;2023-08-01T20:33:43;98943.72;;;17.22;80.62
15529;BME280;7866;52.280;9.500;2023-08-01T20:38:45;98941.50;;;17.19;80.98
15529;BME280;7866;52.280;9.500;2023-08-01T20:43:47;98948.47;;;17.15;81.05
15529;BME280;7866;52.280;9.500;2023-08-01T20:48:50;98952.72;;;17.11;81.10
15529;BME280;7866;52.280;9.500;2023-08-01T20:53:51;98954.28;;;17.07;81.00
15529;BME280;7866;52.280;9.500;2023-08-01T20:58:53;98959.38;;;17.03;80.69
15529;BME280;7866;52.280;9.500;2023-08-01T21:03:56;98959.06;;;16.99;80.63
15529;BME280;7866;52.280;9.500;2023-08-01T21:08:57;98959.53;;;16.96;80.62
15529;BME280;7866;52.280;9.500;2023-08-01T21:14:00;98956.38;;;16.99;80.47
15529;BME280;7866;52.280;9.500;2023-08-01T21:19:03;98956.66;;;17.03;80.14
15529;BME280;7866;52.280;9.500;2023-08-01T21:24:04;98959.63;;;17.02;80.11
15529;BME280;7866;52.280;9.500;2023-08-01T21:29:06;98970.44;;;17.02;80.16
15529;BME280;7866;52.280;9.500;2023-08-01T21:34:10;98957.50;;;17.04;80.04
15529;BME280;7866;52.280;9.500;2023-08-01T21:39:11;98955.84;;;17.03;80.15
15529;BME280;7866;52.280;9.500;2023-08-01T21:44:13;98955.28;;;17.01;80.01
15529;BME280;7866;52.280;9.500;2023-08-01T21:49:16;98952.81;;;16.99;80.26
15529;BME280;7866;52.280;9.500;2023-08-01T21:54:18;98956.38;;;16.99;80.29
15529;BME280;7866;52.280;9.500;2023-08-01T21:59:19;98959.44;;;16.91;80.34
15529;BME280;7866;52.280;9.500;2023-08-01T22:04:22;98947.41;;;16.99;80.29
15529;BME280;7866;52.280;9.500;2023-08-01T22:09:24;98948.63;;;16.91;80.22
15529;BME280;7866;52.280;9.500;2023-08-01T22:14:25;98952.72;;;16.94;80.40
15529;BME280;7866;52.280;9.500;2023-08-01T22:19:28;98952.06;;;16.87;80.93
15529;BME280;7866;52.280;9.500;2023-08-01T22:24:30;98958.53;;;16.86;80.72
15529;BME280;7866;52.280;9.500;2023-08-01T22:29:32;98963.06;;;16.80;80.88
15529;BME280;7866;52.280;9.500;2023-08-01T22:34:35;98953.28;;;16.79;81.18
15529;BME280;7866;52.280;9.500;2023-08-01T22:39:36;98955.41;;;16.77;80.97
15529;BME280;7866;52.280;9.500;2023-08-01T22:44:38;98952.38;;;16.73;81.10
15529;BME280;7866;52.280;9.500;2023-08-01T22:49:41;98961.91;;;16.76;81.32
15529;BME280;7866;52.280;9.500;2023-08-01T22:54:42;98955.31;;;16.72;81.17
15529;BME280;7866;52.280;9.500;2023-08-01T22:59:44;98943.91;;;16.70;81.17
15529;BME280;7866;52.280;9.500;2023-08-01T23:04:47;98957.34;;;16.65;81.83
15529;BME280;7866;52.280;9.500;2023-08-01T23:09:50;98956.00;;;16.67;81.72
15529;BME280;7866;52.280;9.500;2023-08-01T23:14:54;98949.31;;;16.70;81.49
15529;BME280;7866;52.280;9.500;2023-08-01T23:19:57;98941.69;;;16.67;81.51
15529;BME280;7866;52.280;9.500;2023-08-01T23:24:59;98940.53;;;16.63;81.63
15529;BME280;7866;52.280;9.500;2023-08-01T23:30:01;98939.22;;;16.65;81.52
15529;BME280;7866;52.280;9.500;2023-08-01T23:35:04;98947.00;;;16.62;81.67
15529;BME280;7866;52.280;9.500;2023-08-01T23:40:07;98951.25;;;16.58;81.66
15529;BME280;7866;52.280;9.500;2023-08-01T23:45:09;98954.28;;;16.61;81.48
15529;BME280;7866;52.280;9.500;2023-08-01T23:50:12;98946.44;;;16.60;81.48
15529;BME280;7866;52.280;9.500;2023-08-01T23:55:14;98944.44;;;16.55;81.58
